Terminal Aerodrome Forecast
Issued by NWS Knoxville/Tri Cities, TN

Home | Current Version | Previous Version | Text Only | Print | Product List | Glossary On
Versions: 1 2 3 4 5 6 7 8 9 10 11 12 13 14 15
000
FTUS44 KMRX 262325
TAFCHA
TAF
KCHA 262325Z 2700/2724 10003KT P6SM FEW050 SCT080 BKN250
     FM270400 00000KT P6SM BKN250
     FM270900 00000KT 5SM BR SCT004
     FM271200 02003KT P6SM SCT070
     FM271500 06005KT P6SM SCT100=

USA.gov is the U.S. government's official web portal to all federal, state and local government web resources and services.